sensor_id;sensor_type;location;lat;lon;timestamp;temperature;humidity
24085;DHT22;12268;52.110;5.548;2023-06-10T02:51:14;22.40;90.90
24085;DHT22;12268;52.110;5.548;2023-06-10T02:53:40;22.30;91.30
24085;DHT22;12268;52.110;5.548;2023-06-10T02:56:05;22.30;91.40
24085;DHT22;12268;52.110;5.548;2023-06-10T02:58:31;22.20;91.60
24085;DHT22;12268;52.110;5.548;2023-06-10T03:00:56;22.00;92.10
24085;DHT22;12268;52.110;5.548;2023-06-10T03:03:23;21.90;92.50
24085;DHT22;12268;52.110;5.548;2023-06-10T03:05:49;22.10;92.50
24085;DHT22;12268;52.110;5.548;2023-06-10T03:08:15;22.10;92.60
24085;DHT22;12268;52.110;5.548;2023-06-10T05:20:09;23.00;99.20
24085;DHT22;12268;52.110;5.548;2023-06-10T05:22:34;23.10;99.10
24085;DHT22;12268;52.110;5.548;2023-06-10T05:25:00;23.20;99.00
24085;DHT22;12268;52.110;5.548;2023-06-10T05:27:25;23.30;99.00
24085;DHT22;12268;52.110;5.548;2023-06-10T05:29:51;23.20;98.50
24085;DHT22;12268;52.110;5.548;2023-06-10T05:32:18;23.30;98.40
24085;DHT22;12268;52.110;5.548;2023-06-10T05:34:43;23.20;98.70
24085;DHT22;12268;52.110;5.548;2023-06-10T05:37:09;23.40;98.60
24085;DHT22;12268;52.110;5.548;2023-06-10T05:39:35;23.50;98.80
24085;DHT22;12268;52.110;5.548;2023-06-10T06:51:57;24.60;94.70
24085;DHT22;12268;52.110;5.548;2023-06-10T06:54:23;24.50;95.00
24085;DHT22;12268;52.110;5.548;2023-06-10T06:56:48;25.00;95.10
24085;DHT22;12268;52.110;5.548;2023-06-10T06:59:14;25.00;94.60
24085;DHT22;12268;52.110;5.548;2023-06-10T07:01:40;25.40;94.70
24085;DHT22;12268;52.110;5.548;2023-06-10T07:04:05;25.50;94.70
24085;DHT22;12268;52.110;5.548;2023-06-10T07:06:31;25.90;93.40
24085;DHT22;12268;52.110;5.548;2023-06-10T07:08:56;25.90;93.40
24085;DHT22;12268;52.110;5.548;2023-06-10T07:11:22;25.90;92.50
24085;DHT22;12268;52.110;5.548;2023-06-10T07:13:48;26.00;93.10
24085;DHT22;12268;52.110;5.548;2023-06-10T07:16:14;26.30;93.10
24085;DHT22;12268;52.110;5.548;2023-06-10T07:18:39;26.40;92.10
24085;DHT22;12268;52.110;5.548;2023-06-10T07:21:05;26.10;91.80
24085;DHT22;12268;52.110;5.548;2023-06-10T07:23:30;26.10;92.70
24085;DHT22;12268;52.110;5.548;2023-06-10T07:25:56;26.10;92.20
24085;DHT22;12268;52.110;5.548;2023-06-10T07:28:21;26.60;91.80
24085;DHT22;12268;52.110;5.548;2023-06-10T07:30:47;26.40;91.00
24085;DHT22;12268;52.110;5.548;2023-06-10T07:33:13;26.50;90.50
24085;DHT22;12268;52.110;5.548;2023-06-10T07:35:38;27.00;90.30
24085;DHT22;12268;52.110;5.548;2023-06-10T07:38:04;27.50;90.70
24085;DHT22;12268;52.110;5.548;2023-06-10T07:40:29;27.80;87.90
24085;DHT22;12268;52.110;5.548;2023-06-10T07:42:55;28.00;88.30
24085;DHT22;12268;52.110;5.548;2023-06-10T07:45:21;28.20;86.40
24085;DHT22;12268;52.110;5.548;2023-06-10T07:47:46;28.40;85.90
24085;DHT22;12268;52.110;5.548;2023-06-10T07:50:12;28.80;84.40
24085;DHT22;12268;52.110;5.548;2023-06-10T07:52:37;29.20;82.30
24085;DHT22;12268;52.110;5.548;2023-06-10T07:55:04;29.80;80.00
24085;DHT22;12268;52.110;5.548;2023-06-10T07:57:30;30.40;78.50
24085;DHT22;12268;52.110;5.548;2023-06-10T08:00:00;31.20;75.60
24085;DHT22;12268;52.110;5.548;2023-06-10T08:02:27;31.30;73.00
24085;DHT22;12268;52.110;5.548;2023-06-10T08:04:52;31.20;71.70
24085;DHT22;12268;52.110;5.548;2023-06-10T08:07:18;32.70;69.80
24085;DHT22;12268;52.110;5.548;2023-06-10T08:09:44;33.30;64.70
24085;DHT22;12268;52.110;5.548;2023-06-10T08:12:10;34.20;63.30
24085;DHT22;12268;52.110;5.548;2023-06-10T08:14:35;35.20;61.80
24085;DHT22;12268;52.110;5.548;2023-06-10T08:17:02;35.80;58.50
24085;DHT22;12268;52.110;5.548;2023-06-10T08:19:30;36.10;57.60
24085;DHT22;12268;52.110;5.548;2023-06-10T08:21:56;36.70;57.00
24085;DHT22;12268;52.110;5.548;2023-06-10T08:24:21;37.40;55.00
24085;DHT22;12268;52.110;5.548;2023-06-10T08:26:47;37.50;54.40
24085;DHT22;12268;52.110;5.548;2023-06-10T08:29:13;38.50;52.60
24085;DHT22;12268;52.110;5.548;2023-06-10T08:31:42;38.70;52.00
24085;DHT22;12268;52.110;5.548;2023-06-10T08:34:08;38.70;50.80
24085;DHT22;12268;52.110;5.548;2023-06-10T08:36:33;39.00;49.80
24085;DHT22;12268;52.110;5.548;2023-06-10T08:38:59;39.10;49.30
24085;DHT22;12268;52.110;5.548;2023-06-10T08:41:25;38.60;48.10
24085;DHT22;12268;52.110;5.548;2023-06-10T08:44:13;37.90;49.20
24085;DHT22;12268;52.110;5.548;2023-06-10T08:46:45;38.30;48.40
24085;DHT22;12268;52.110;5.548;2023-06-10T08:49:14;38.40;49.20
24085;DHT22;12268;52.110;5.548;2023-06-10T08:51:41;38.80;48.60
24085;DHT22;12268;52.110;5.548;2023-06-10T08:54:20;38.50;48.00
24085;DHT22;12268;52.110;5.548;2023-06-10T08:56:49;39.00;48.80
24085;DHT22;12268;52.110;5.548;2023-06-10T08:59:16;40.30;46.90
24085;DHT22;12268;52.110;5.548;2023-06-10T09:01:43;40.20;46.10
24085;DHT22;12268;52.110;5.548;2023-06-10T09:04:10;39.60;46.90
24085;DHT22;12268;52.110;5.548;2023-06-10T09:06:35;39.60;46.80
24085;DHT22;12268;52.110;5.548;2023-06-10T09:09:02;40.40;46.20
24085;DHT22;12268;52.110;5.548;2023-06-10T09:11:28;39.70;46.20
24085;DHT22;12268;52.110;5.548;2023-06-10T09:13:54;39.70;46.20
24085;DHT22;12268;52.110;5.548;2023-06-10T09:16:19;40.90;45.90
24085;DHT22;12268;52.110;5.548;2023-06-10T09:18:45;42.40;43.50
24085;DHT22;12268;52.110;5.548;2023-06-10T09:21:11;42.20;43.70
24085;DHT22;12268;52.110;5.548;2023-06-10T09:23:37;43.00;43.40
24085;DHT22;12268;52.110;5.548;2023-06-10T09:26:08;44.20;42.60
24085;DHT22;12268;52.110;5.548;2023-06-10T09:28:34;44.90;41.90
24085;DHT22;12268;52.110;5.548;2023-06-10T09:31:04;44.30;40.10
24085;DHT22;12268;52.110;5.548;2023-06-10T09:33:30;44.70;40.90
24085;DHT22;12268;52.110;5.548;2023-06-10T09:35:56;45.00;40.80
24085;DHT22;12268;52.110;5.548;2023-06-10T09:38:30;45.00;39.60
24085;DHT22;12268;52.110;5.548;2023-06-10T09:40:56;45.10;38.50
24085;DHT22;12268;52.110;5.548;2023-06-10T09:43:21;45.00;38.40
24085;DHT22;12268;52.110;5.548;2023-06-10T09:45:50;45.80;39.80
24085;DHT22;12268;52.110;5.548;2023-06-10T09:48:18;46.80;38.10
24085;DHT22;12268;52.110;5.548;2023-06-10T09:50:45;45.80;37.80
24085;DHT22;12268;52.110;5.548;2023-06-10T09:53:11;44.60;37.40
24085;DHT22;12268;52.110;5.548;2023-06-10T09:55:41;45.40;37.80
24085;DHT22;12268;52.110;5.548;2023-06-10T09:58:07;45.30;37.20
24085;DHT22;12268;52.110;5.548;2023-06-10T10:00:33;44.90;37.30
24085;DHT22;12268;52.110;5.548;2023-06-10T10:02:59;44.60;36.70
24085;DHT22;12268;52.110;5.548;2023-06-10T10:05:25;45.20;36.40
24085;DHT22;12268;52.110;5.548;2023-06-10T10:07:51;46.20;36.30
24085;DHT22;12268;52.110;5.548;2023-06-10T10:10:19;47.10;34.90
24085;DHT22;12268;52.110;5.548;2023-06-10T10:12:47;45.50;35.00
24085;DHT22;12268;52.110;5.548;2023-06-10T10:15:12;45.00;35.50
24085;DHT22;12268;52.110;5.548;2023-06-10T10:18:09;44.10;36.10
24085;DHT22;12268;52.110;5.548;2023-06-10T10:20:45;44.10;36.40
24085;DHT22;12268;52.110;5.548;2023-06-10T10:23:14;43.40;35.80
24085;DHT22;12268;52.110;5.548;2023-06-10T10:25:43;43.50;37.10
24085;DHT22;12268;52.110;5.548;2023-06-10T10:28:12;44.10;36.00
24085;DHT22;12268;52.110;5.548;2023-06-10T10:30:45;43.30;35.20
24085;DHT22;12268;52.110;5.548;2023-06-10T10:33:33;42.10;34.70
24085;DHT22;12268;52.110;5.548;2023-06-10T10:36:01;42.50;35.60
24085;DHT22;12268;52.110;5.548;2023-06-10T10:38:28;41.60;35.90
24085;DHT22;12268;52.110;5.548;2023-06-10T10:40:54;41.50;36.10
24085;DHT22;12268;52.110;5.548;2023-06-10T10:43:21;41.50;35.40
24085;DHT22;12268;52.110;5.548;2023-06-10T10:45:58;43.20;35.70
24085;DHT22;12268;52.110;5.548;2023-06-10T10:48:24;43.40;33.80
24085;DHT22;12268;52.110;5.548;2023-06-10T10:50:57;42.00;35.20
24085;DHT22;12268;52.110;5.548;2023-06-10T10:53:23;42.00;34.60
24085;DHT22;12268;52.110;5.548;2023-06-10T10:56:14;41.40;35.90
24085;DHT22;12268;52.110;5.548;2023-06-10T10:58:40;42.20;35.40
24085;DHT22;12268;52.110;5.548;2023-06-10T11:01:13;42.50;35.00
24085;DHT22;12268;52.110;5.548;2023-06-10T11:03:43;43.80;34.40
24085;DHT22;12268;52.110;5.548;2023-06-10T11:06:18;44.80;33.30
24085;DHT22;12268;52.110;5.548;2023-06-10T11:11:26;44.80;33.40
24085;DHT22;12268;52.110;5.548;2023-06-10T11:14:06;45.40;32.40
24085;DHT22;12268;52.110;5.548;2023-06-10T11:16:42;46.90;32.50
24085;DHT22;12268;52.110;5.548;2023-06-10T11:19:08;48.00;31.60
24085;DHT22;12268;52.110;5.548;2023-06-10T11:22:42;46.70;31.20
24085;DHT22;12268;52.110;5.548;2023-06-10T11:24:39;47.20;31.50
24085;DHT22;12268;52.110;5.548;2023-06-10T11:32:33;46.70;31.80
24085;DHT22;12268;52.110;5.548;2023-06-10T11:35:02;45.60;32.30
24085;DHT22;12268;52.110;5.548;2023-06-10T11:37:28;47.00;32.10
24085;DHT22;12268;52.110;5.548;2023-06-10T11:39:55;46.00;31.40
24085;DHT22;12268;52.110;5.548;2023-06-10T11:42:22;46.20;31.10
24085;DHT22;12268;52.110;5.548;2023-06-10T11:44:51;47.40;31.40
24085;DHT22;12268;52.110;5.548;2023-06-10T11:47:18;47.90;30.10
24085;DHT22;12268;52.110;5.548;2023-06-10T11:49:45;47.30;30.00
24085;DHT22;12268;52.110;5.548;2023-06-10T11:52:10;46.70;30.00
24085;DHT22;12268;52.110;5.548;2023-06-10T11:54:37;47.40;31.00
24085;DHT22;12268;52.110;5.548;2023-06-10T11:57:03;48.70;30.20
24085;DHT22;12268;52.110;5.548;2023-06-10T11:59:29;49.00;29.90
24085;DHT22;12268;52.110;5.548;2023-06-10T12:01:56;49.90;30.00
24085;DHT22;12268;52.110;5.548;2023-06-10T12:04:21;51.10;29.10
24085;DHT22;12268;52.110;5.548;2023-06-10T12:06:49;51.60;28.40
24085;DHT22;12268;52.110;5.548;2023-06-10T12:09:22;51.80;28.70
24085;DHT22;12268;52.110;5.548;2023-06-10T12:12:04;50.80;28.30
24085;DHT22;12268;52.110;5.548;2023-06-10T12:14:53;49.60;28.40
24085;DHT22;12268;52.110;5.548;2023-06-10T12:17:42;49.00;28.30
24085;DHT22;12268;52.110;5.548;2023-06-10T12:20:23;49.00;29.80
24085;DHT22;12268;52.110;5.548;2023-06-10T12:22:49;48.10;29.10
24085;DHT22;12268;52.110;5.548;2023-06-10T12:25:15;47.40;29.20
24085;DHT22;12268;52.110;5.548;2023-06-10T12:27:53;48.10;29.60
24085;DHT22;12268;52.110;5.548;2023-06-10T12:30:20;48.10;29.10
24085;DHT22;12268;52.110;5.548;2023-06-10T12:32:47;47.90;29.40
24085;DHT22;12268;52.110;5.548;2023-06-10T12:35:17;47.50;29.90
24085;DHT22;12268;52.110;5.548;2023-06-10T12:38:03;47.40;29.40
24085;DHT22;12268;52.110;5.548;2023-06-10T12:40:37;48.10;29.90
24085;DHT22;12268;52.110;5.548;2023-06-10T12:43:05;48.40;28.80
24085;DHT22;12268;52.110;5.548;2023-06-10T12:45:33;47.90;29.20
24085;DHT22;12268;52.110;5.548;2023-06-10T12:48:23;48.80;29.50
24085;DHT22;12268;52.110;5.548;2023-06-10T12:50:52;49.60;29.10
24085;DHT22;12268;52.110;5.548;2023-06-10T12:53:18;50.20;29.10
24085;DHT22;12268;52.110;5.548;2023-06-10T12:55:45;50.50;28.40
24085;DHT22;12268;52.110;5.548;2023-06-10T12:58:11;50.10;28.40
24085;DHT22;12268;52.110;5.548;2023-06-10T13:00:37;49.50;28.50
24085;DHT22;12268;52.110;5.548;2023-06-10T13:03:03;48.60;28.20
24085;DHT22;12268;52.110;5.548;2023-06-10T13:05:31;48.20;28.60
24085;DHT22;12268;52.110;5.548;2023-06-10T13:07:57;47.20;29.70
24085;DHT22;12268;52.110;5.548;2023-06-10T13:10:23;46.00;30.60
24085;DHT22;12268;52.110;5.548;2023-06-10T13:12:50;45.90;30.00
24085;DHT22;12268;52.110;5.548;2023-06-10T13:15:16;44.60;31.90
24085;DHT22;12268;52.110;5.548;2023-06-10T13:17:43;45.00;31.00
24085;DHT22;12268;52.110;5.548;2023-06-10T13:20:09;44.90;30.80
24085;DHT22;12268;52.110;5.548;2023-06-10T13:22:35;44.50;31.60
24085;DHT22;12268;52.110;5.548;2023-06-10T13:25:02;44.20;31.30
24085;DHT22;12268;52.110;5.548;2023-06-10T13:27:29;42.50;31.60
24085;DHT22;12268;52.110;5.548;2023-06-10T13:29:54;42.50;33.00
24085;DHT22;12268;52.110;5.548;2023-06-10T13:32:20;42.90;33.40
24085;DHT22;12268;52.110;5.548;2023-06-10T13:34:46;43.00;32.20
24085;DHT22;12268;52.110;5.548;2023-06-10T13:37:11;42.60;32.50
24085;DHT22;12268;52.110;5.548;2023-06-10T13:39:38;41.80;32.70
24085;DHT22;12268;52.110;5.548;2023-06-10T13:42:04;41.20;32.90
24085;DHT22;12268;52.110;5.548;2023-06-10T13:44:31;41.10;33.20
24085;DHT22;12268;52.110;5.548;2023-06-10T13:46:59;40.10;33.30
24085;DHT22;12268;52.110;5.548;2023-06-10T13:49:24;39.40;35.30
24085;DHT22;12268;52.110;5.548;2023-06-10T13:51:50;38.70;34.90
24085;DHT22;12268;52.110;5.548;2023-06-10T13:54:15;39.40;34.40
24085;DHT22;12268;52.110;5.548;2023-06-10T13:56:41;39.30;34.50
24085;DHT22;12268;52.110;5.548;2023-06-10T13:59:07;39.40;34.50
24085;DHT22;12268;52.110;5.548;2023-06-10T14:01:33;39.40;34.80
24085;DHT22;12268;52.110;5.548;2023-06-10T14:03:59;39.00;34.40
24085;DHT22;12268;52.110;5.548;2023-06-10T14:06:26;38.90;34.60
24085;DHT22;12268;52.110;5.548;2023-06-10T14:08:51;38.90;34.00
24085;DHT22;12268;52.110;5.548;2023-06-10T14:11:17;38.40;35.70
24085;DHT22;12268;52.110;5.548;2023-06-10T14:13:42;37.70;35.30
24085;DHT22;12268;52.110;5.548;2023-06-10T14:16:08;37.70;36.50
24085;DHT22;12268;52.110;5.548;2023-06-10T14:18:33;38.50;35.50
24085;DHT22;12268;52.110;5.548;2023-06-10T14:20:59;39.30;34.60
24085;DHT22;12268;52.110;5.548;2023-06-10T14:23:24;39.60;35.30
24085;DHT22;12268;52.110;5.548;2023-06-10T14:25:50;40.20;34.30
24085;DHT22;12268;52.110;5.548;2023-06-10T14:28:16;39.50;34.40
24085;DHT22;12268;52.110;5.548;2023-06-10T14:30:42;39.40;33.80
24085;DHT22;12268;52.110;5.548;2023-06-10T14:33:07;38.70;34.60
24085;DHT22;12268;52.110;5.548;2023-06-10T14:35:33;37.80;35.60
24085;DHT22;12268;52.110;5.548;2023-06-10T14:37:58;37.90;34.60
24085;DHT22;12268;52.110;5.548;2023-06-10T14:40:24;38.50;36.30
24085;DHT22;12268;52.110;5.548;2023-06-10T14:42:51;39.20;35.50
24085;DHT22;12268;52.110;5.548;2023-06-10T14:45:17;39.70;34.10
24085;DHT22;12268;52.110;5.548;2023-06-10T14:47:42;39.00;34.80
24085;DHT22;12268;52.110;5.548;2023-06-10T14:50:08;38.80;35.30
24085;DHT22;12268;52.110;5.548;2023-06-10T14:52:34;38.70;35.50
24085;DHT22;12268;52.110;5.548;2023-06-10T14:54:59;39.20;34.40
24085;DHT22;12268;52.110;5.548;2023-06-10T14:57:25;39.10;35.90
24085;DHT22;12268;52.110;5.548;2023-06-10T14:59:51;38.70;34.90
24085;DHT22;12268;52.110;5.548;2023-06-10T15:02:16;38.10;34.30
24085;DHT22;12268;52.110;5.548;2023-06-10T15:04:42;37.90;35.30
24085;DHT22;12268;52.110;5.548;2023-06-10T15:07:07;37.80;34.50
24085;DHT22;12268;52.110;5.548;2023-06-10T15:09:33;38.10;35.30
24085;DHT22;12268;52.110;5.548;2023-06-10T15:11:58;37.90;35.40
24085;DHT22;12268;52.110;5.548;2023-06-10T15:14:28;37.90;34.70
24085;DHT22;12268;52.110;5.548;2023-06-10T15:16:54;37.80;35.60
24085;DHT22;12268;52.110;5.548;2023-06-10T15:19:21;37.90;35.00
24085;DHT22;12268;52.110;5.548;2023-06-10T15:21:46;37.60;34.80
24085;DHT22;12268;52.110;5.548;2023-06-10T15:24:12;37.20;35.20
24085;DHT22;12268;52.110;5.548;2023-06-10T15:26:37;37.20;34.70
24085;DHT22;12268;52.110;5.548;2023-06-10T15:29:03;37.60;35.10
24085;DHT22;12268;52.110;5.548;2023-06-10T15:31:30;37.30;36.10
24085;DHT22;12268;52.110;5.548;2023-06-10T15:33:57;37.20;36.10
24085;DHT22;12268;52.110;5.548;2023-06-10T15:36:22;37.00;36.30
24085;DHT22;12268;52.110;5.548;2023-06-10T15:38:48;37.30;36.10
24085;DHT22;12268;52.110;5.548;2023-06-10T15:41:13;36.60;35.50
24085;DHT22;12268;52.110;5.548;2023-06-10T15:43:39;36.40;36.00
24085;DHT22;12268;52.110;5.548;2023-06-10T15:46:07;36.20;36.50
24085;DHT22;12268;52.110;5.548;2023-06-10T15:48:32;36.30;36.50
24085;DHT22;12268;52.110;5.548;2023-06-10T15:50:58;36.70;36.80
24085;DHT22;12268;52.110;5.548;2023-06-10T15:53:23;36.30;36.20
24085;DHT22;12268;52.110;5.548;2023-06-10T15:55:49;36.00;36.50
24085;DHT22;12268;52.110;5.548;2023-06-10T15:58:14;36.20;36.90
24085;DHT22;12268;52.110;5.548;2023-06-10T16:00:40;36.40;35.80
24085;DHT22;12268;52.110;5.548;2023-06-10T16:03:05;36.10;36.50
24085;DHT22;12268;52.110;5.548;2023-06-10T16:05:31;36.20;36.70
24085;DHT22;12268;52.110;5.548;2023-06-10T16:07:56;36.10;37.00
24085;DHT22;12268;52.110;5.548;2023-06-10T16:10:23;36.90;36.10
24085;DHT22;12268;52.110;5.548;2023-06-10T16:12:50;36.40;35.70
24085;DHT22;12268;52.110;5.548;2023-06-10T16:15:15;36.30;37.20
24085;DHT22;12268;52.110;5.548;2023-06-10T16:17:41;35.90;36.40
24085;DHT22;12268;52.110;5.548;2023-06-10T16:20:08;35.50;37.90
24085;DHT22;12268;52.110;5.548;2023-06-10T16:22:34;35.00;37.00
24085;DHT22;12268;52.110;5.548;2023-06-10T16:24:59;34.70;38.20
24085;DHT22;12268;52.110;5.548;2023-06-10T16:27:25;34.80;38.90
24085;DHT22;12268;52.110;5.548;2023-06-10T16:29:54;34.20;37.70
24085;DHT22;12268;52.110;5.548;2023-06-10T16:32:20;34.30;38.50
24085;DHT22;12268;52.110;5.548;2023-06-10T16:34:45;34.70;37.70
24085;DHT22;12268;52.110;5.548;2023-06-10T16:37:11;34.70;36.90
24085;DHT22;12268;52.110;5.548;2023-06-10T16:39:36;34.80;38.10
24085;DHT22;12268;52.110;5.548;2023-06-10T16:42:02;34.60;37.30
24085;DHT22;12268;52.110;5.548;2023-06-10T16:44:28;34.60;38.10
24085;DHT22;12268;52.110;5.548;2023-06-10T16:46:53;34.50;38.30
24085;DHT22;12268;52.110;5.548;2023-06-10T16:49:19;34.20;38.80
24085;DHT22;12268;52.110;5.548;2023-06-10T16:51:44;34.50;39.00
24085;DHT22;12268;52.110;5.548;2023-06-10T16:54:10;34.50;40.70
24085;DHT22;12268;52.110;5.548;2023-06-10T16:56:35;34.20;39.70
24085;DHT22;12268;52.110;5.548;2023-06-10T16:59:01;33.90;40.30
24085;DHT22;12268;52.110;5.548;2023-06-10T17:01:27;33.60;40.00
24085;DHT22;12268;52.110;5.548;2023-06-10T17:03:52;33.70;41.00
24085;DHT22;12268;52.110;5.548;2023-06-10T17:06:18;33.60;41.00
24085;DHT22;12268;52.110;5.548;2023-06-10T17:08:44;33.30;40.40
24085;DHT22;12268;52.110;5.548;2023-06-10T17:11:10;33.00;40.70
24085;DHT22;12268;52.110;5.548;2023-06-10T17:13:35;32.90;41.90
24085;DHT22;12268;52.110;5.548;2023-06-10T17:16:01;32.60;40.90
24085;DHT22;12268;52.110;5.548;2023-06-10T17:18:27;32.60;41.70
24085;DHT22;12268;52.110;5.548;2023-06-10T17:20:52;32.30;41.40
24085;DHT22;12268;52.110;5.548;2023-06-10T17:23:18;32.40;42.20
24085;DHT22;12268;52.110;5.548;2023-06-10T17:25:43;32.30;42.00
24085;DHT22;12268;52.110;5.548;2023-06-10T17:28:09;32.20;43.10
24085;DHT22;12268;52.110;5.548;2023-06-10T17:30:34;32.40;41.90
24085;DHT22;12268;52.110;5.548;2023-06-10T17:33:00;32.80;42.20
24085;DHT22;12268;52.110;5.548;2023-06-10T17:35:25;32.60;42.20
24085;DHT22;12268;52.110;5.548;2023-06-10T17:37:51;32.70;41.50
24085;DHT22;12268;52.110;5.548;2023-06-10T17:40:17;32.40;42.10
24085;DHT22;12268;52.110;5.548;2023-06-10T17:42:42;32.20;42.40
24085;DHT22;12268;52.110;5.548;2023-06-10T17:45:08;32.00;42.90
24085;DHT22;12268;52.110;5.548;2023-06-10T17:47:34;31.90;43.10
24085;DHT22;12268;52.110;5.548;2023-06-10T17:49:59;31.90;43.20
24085;DHT22;12268;52.110;5.548;2023-06-10T17:52:25;31.80;43.10
24085;DHT22;12268;52.110;5.548;2023-06-10T17:54:50;31.90;44.10
24085;DHT22;12268;52.110;5.548;2023-06-10T17:57:16;31.60;43.70
24085;DHT22;12268;52.110;5.548;2023-06-10T17:59:41;31.40;44.90
24085;DHT22;12268;52.110;5.548;2023-06-10T18:02:08;31.10;44.40
24085;DHT22;12268;52.110;5.548;2023-06-10T18:04:33;31.10;45.00
24085;DHT22;12268;52.110;5.548;2023-06-10T18:06:59;31.40;45.10
24085;DHT22;12268;52.110;5.548;2023-06-10T18:09:25;31.30;45.50
24085;DHT22;12268;52.110;5.548;2023-06-10T18:11:52;31.40;45.10
24085;DHT22;12268;52.110;5.548;2023-06-10T18:14:18;31.10;44.50
24085;DHT22;12268;52.110;5.548;2023-06-10T18:16:43;30.80;44.90
24085;DHT22;12268;52.110;5.548;2023-06-10T18:19:09;31.00;45.70
24085;DHT22;12268;52.110;5.548;2023-06-10T18:21:34;30.80;45.40
24085;DHT22;12268;52.110;5.548;2023-06-10T18:24:01;30.80;45.80
24085;DHT22;12268;52.110;5.548;2023-06-10T18:26:27;31.00;46.00
24085;DHT22;12268;52.110;5.548;2023-06-10T18:28:53;30.90;46.20
24085;DHT22;12268;52.110;5.548;2023-06-10T18:31:18;30.90;46.90
24085;DHT22;12268;52.110;5.548;2023-06-10T18:33:44;30.80;46.40
24085;DHT22;12268;52.110;5.548;2023-06-10T18:36:09;30.70;46.00
24085;DHT22;12268;52.110;5.548;2023-06-10T18:38:35;31.00;45.80
24085;DHT22;12268;52.110;5.548;2023-06-10T18:41:00;30.80;45.20
24085;DHT22;12268;52.110;5.548;2023-06-10T18:43:26;30.90;44.90
24085;DHT22;12268;52.110;5.548;2023-06-10T18:45:52;30.50;45.00
24085;DHT22;12268;52.110;5.548;2023-06-10T18:48:17;30.60;45.10
24085;DHT22;12268;52.110;5.548;2023-06-10T18:50:43;30.50;45.00
24085;DHT22;12268;52.110;5.548;2023-06-10T18:53:08;30.30;45.50
24085;DHT22;12268;52.110;5.548;2023-06-10T18:55:34;30.20;45.50
24085;DHT22;12268;52.110;5.548;2023-06-10T18:58:02;30.10;45.40
24085;DHT22;12268;52.110;5.548;2023-06-10T19:00:29;29.90;45.60
24085;DHT22;12268;52.110;5.548;2023-06-10T19:02:55;30.10;45.80
24085;DHT22;12268;52.110;5.548;2023-06-10T19:05:20;29.90;46.10
24085;DHT22;12268;52.110;5.548;2023-06-10T19:07:48;30.00;46.10
24085;DHT22;12268;52.110;5.548;2023-06-10T19:10:13;29.90;46.60
24085;DHT22;12268;52.110;5.548;2023-06-10T19:12:39;29.90;46.50
24085;DHT22;12268;52.110;5.548;2023-06-10T19:15:05;30.00;46.40
24085;DHT22;12268;52.110;5.548;2023-06-10T19:17:30;29.80;46.70
24085;DHT22;12268;52.110;5.548;2023-06-10T19:19:56;29.70;46.90
24085;DHT22;12268;52.110;5.548;2023-06-10T19:22:22;29.80;46.90
24085;DHT22;12268;52.110;5.548;2023-06-10T19:25:02;29.70;47.40
24085;DHT22;12268;52.110;5.548;2023-06-10T19:27:28;29.70;47.50
24085;DHT22;12268;52.110;5.548;2023-06-10T19:29:55;29.60;48.40
24085;DHT22;12268;52.110;5.548;2023-06-10T19:32:23;29.80;47.70
24085;DHT22;12268;52.110;5.548;2023-06-10T19:34:48;29.70;47.60
24085;DHT22;12268;52.110;5.548;2023-06-10T19:37:14;29.70;47.60
24085;DHT22;12268;52.110;5.548;2023-06-10T19:39:40;29.50;47.70
24085;DHT22;12268;52.110;5.548;2023-06-10T19:42:05;29.60;48.00
24085;DHT22;12268;52.110;5.548;2023-06-10T19:44:31;29.80;48.90
24085;DHT22;12268;52.110;5.548;2023-06-10T19:46:57;29.80;48.80
24085;DHT22;12268;52.110;5.548;2023-06-10T19:49:22;29.70;49.20
24085;DHT22;12268;52.110;5.548;2023-06-10T19:51:47;29.70;49.90
24085;DHT22;12268;52.110;5.548;2023-06-10T19:54:15;29.60;50.20
24085;DHT22;12268;52.110;5.548;2023-06-10T19:56:40;29.60;49.80
24085;DHT22;12268;52.110;5.548;2023-06-10T19:59:06;29.50;49.50
24085;DHT22;12268;52.110;5.548;2023-06-10T20:01:31;29.30;49.70
24085;DHT22;12268;52.110;5.548;2023-06-10T20:03:57;29.30;50.20
24085;DHT22;12268;52.110;5.548;2023-06-10T20:06:23;29.10;50.20
24085;DHT22;12268;52.110;5.548;2023-06-10T20:08:48;29.00;49.90
24085;DHT22;12268;52.110;5.548;2023-06-10T20:11:14;29.00;49.70
24085;DHT22;12268;52.110;5.548;2023-06-10T20:13:40;29.00;50.00
24085;DHT22;12268;52.110;5.548;2023-06-10T20:16:05;28.90;50.00
24085;DHT22;12268;52.110;5.548;2023-06-10T20:18:31;28.80;49.90
24085;DHT22;12268;52.110;5.548;2023-06-10T20:20:57;28.80;50.00
24085;DHT22;12268;52.110;5.548;2023-06-10T20:23:23;28.80;50.10
24085;DHT22;12268;52.110;5.548;2023-06-10T20:25:48;28.70;50.20
24085;DHT22;12268;52.110;5.548;2023-06-10T20:28:14;28.70;50.30
24085;DHT22;12268;52.110;5.548;2023-06-10T20:30:40;28.60;50.40
24085;DHT22;12268;52.110;5.548;2023-06-10T20:33:06;28.60;50.40
24085;DHT22;12268;52.110;5.548;2023-06-10T20:35:32;28.60;50.60
24085;DHT22;12268;52.110;5.548;2023-06-10T20:37:57;28.40;50.60
24085;DHT22;12268;52.110;5.548;2023-06-10T20:40:23;28.00;51.20
24085;DHT22;12268;52.110;5.548;2023-06-10T20:42:48;27.90;51.50
24085;DHT22;12268;52.110;5.548;2023-06-10T20:45:14;27.70;51.70
24085;DHT22;12268;52.110;5.548;2023-06-10T20:47:39;27.40;52.80
24085;DHT22;12268;52.110;5.548;2023-06-10T20:50:05;27.20;52.50
24085;DHT22;12268;52.110;5.548;2023-06-10T20:52:31;27.00;52.80
24085;DHT22;12268;52.110;5.548;2023-06-10T20:54:56;27.00;52.90
24085;DHT22;12268;52.110;5.548;2023-06-10T20:57:22;27.10;52.90
24085;DHT22;12268;52.110;5.548;2023-06-10T20:59:49;26.90;53.10
24085;DHT22;12268;52.110;5.548;2023-06-10T21:02:15;26.70;53.50
24085;DHT22;12268;52.110;5.548;2023-06-10T21:04:40;26.70;53.70
24085;DHT22;12268;52.110;5.548;2023-06-10T21:07:06;26.50;53.70
24085;DHT22;12268;52.110;5.548;2023-06-10T21:09:31;26.60;53.80
24085;DHT22;12268;52.110;5.548;2023-06-10T21:11:57;26.40;54.00
24085;DHT22;12268;52.110;5.548;2023-06-10T21:14:22;26.40;54.30
24085;DHT22;12268;52.110;5.548;2023-06-10T21:16:48;26.40;54.30
24085;DHT22;12268;52.110;5.548;2023-06-10T21:19:13;26.20;54.60
24085;DHT22;12268;52.110;5.548;2023-06-10T21:21:39;26.10;54.80
24085;DHT22;12268;52.110;5.548;2023-06-10T21:24:05;26.00;55.10
24085;DHT22;12268;52.110;5.548;2023-06-10T21:26:31;26.10;55.00
24085;DHT22;12268;52.110;5.548;2023-06-10T21:28:57;26.00;55.30
24085;DHT22;12268;52.110;5.548;2023-06-10T21:31:23;26.10;55.40
24085;DHT22;12268;52.110;5.548;2023-06-10T21:33:50;26.20;55.40
24085;DHT22;12268;52.110;5.548;2023-06-10T21:36:16;26.10;55.50
24085;DHT22;12268;52.110;5.548;2023-06-10T21:38:42;25.90;56.00
24085;DHT22;12268;52.110;5.548;2023-06-10T21:41:07;25.80;56.10
24085;DHT22;12268;52.110;5.548;2023-06-10T21:43:33;25.60;56.60
24085;DHT22;12268;52.110;5.548;2023-06-10T21:45:58;25.50;57.00